Terminal Aerodrome Forecast
Issued by NWS

Home | Current Version | Previous Version | Text Only | Print | Product List | Glossary On
Versions: 1 2 3 4 5 6 7 8 9 10 11 12 13 14 15 16 17 18 19 20 21
000
FTUS43 KGRR 231740
TAFAZO
TAF
KAZO 231740Z 2318/2418 33006KT 2SM BR VCSH OVC004
     FM240400 31004KT 1 1/2SM BR OVC001
     FM241300 30007KT 1 1/2SM BR OVC003
     FM241600 30008KT 2SM BR OVC007
     FM241700 30008KT 4SM BR OVC015=

USA.gov is the U.S. government's official web portal to all federal, state and local government web resources and services.